createdAt,value
2023-04-30T00:02:15.651Z,99210.47
2023-04-30T00:04:43.915Z,99216.28
2023-04-30T00:07:12.269Z,99213.97
2023-04-30T00:09:40.707Z,99205.78
2023-04-30T00:12:10.296Z,99211.59
2023-04-30T00:14:38.456Z,99202.66
2023-04-30T00:17:06.601Z,99206.97
2023-04-30T00:19:34.704Z,99198.03
2023-04-30T00:22:02.779Z,99203.06
2023-04-30T00:24:31.110Z,99207.75
2023-04-30T00:26:59.193Z,99208.19
2023-04-30T00:29:28.852Z,99210.22
2023-04-30T00:31:57.106Z,99207.84
2023-04-30T00:34:26.954Z,99214.03
2023-04-30T00:36:55.023Z,99214.75
2023-04-30T00:39:23.975Z,99213.22
2023-04-30T00:41:52.216Z,99217.13
2023-04-30T00:44:20.790Z,99211.25
2023-04-30T00:46:50.491Z,99213.56
2023-04-30T00:49:18.697Z,99218.97
2023-04-30T00:51:47.118Z,99209.63
2023-04-30T00:54:15.773Z,99209.97
2023-04-30T00:56:44.184Z,99210.72
2023-04-30T00:59:13.185Z,99206.44
2023-04-30T01:01:42.171Z,99204.50
2023-04-30T01:04:12.079Z,99200.59
2023-04-30T01:06:40.474Z,99196.69
2023-04-30T01:09:08.977Z,99196.34
2023-04-30T01:11:47.229Z,99203.38
2023-04-30T01:14:22.803Z,99202.19
2023-04-30T01:17:00.849Z,99204.91
2023-04-30T01:19:39.514Z,99200.66
2023-04-30T01:22:11.544Z,99204.16
2023-04-30T01:25:02.919Z,99205.28
2023-04-30T01:27:41.146Z,99202.56
2023-04-30T01:30:13.192Z,99203.31
2023-04-30T01:32:41.357Z,99199.81
2023-04-30T01:35:10.272Z,99207.56
2023-04-30T01:37:50.893Z,99200.53
2023-04-30T01:40:30.778Z,99195.09
2023-04-30T01:43:06.818Z,99195.84
2023-04-30T01:45:54.552Z,99195.00
2023-04-30T01:48:29.421Z,99194.91
2023-04-30T01:51:07.123Z,99190.25
2023-04-30T01:53:43.252Z,99187.16
2023-04-30T01:56:18.172Z,99189.44
2023-04-30T01:58:47.760Z,99185.44
2023-04-30T02:01:29.693Z,99183.81
2023-04-30T02:03:58.018Z,99190.00
2023-04-30T02:06:28.615Z,99183.75
2023-04-30T02:09:02.587Z,99186.78
2023-04-30T02:11:31.093Z,99186.38
2023-04-30T02:13:59.361Z,99182.09
2023-04-30T02:16:28.894Z,99186.75
2023-04-30T02:18:57.082Z,99187.91
2023-04-30T02:21:25.339Z,99191.78
2023-04-30T02:23:53.473Z,99191.38
2023-04-30T02:26:21.882Z,99186.66
2023-04-30T02:28:50.036Z,99188.63
2023-04-30T02:31:18.237Z,99181.25
2023-04-30T02:33:47.832Z,99191.75
2023-04-30T02:36:15.979Z,99192.13
2023-04-30T02:38:44.132Z,99188.31
2023-04-30T02:41:12.219Z,99182.84
2023-04-30T02:43:40.384Z,99180.50
2023-04-30T02:46:08.535Z,99185.53
2023-04-30T02:48:36.641Z,99190.56
2023-04-30T02:51:06.626Z,99184.28
2023-04-30T02:53:34.945Z,99189.31
2023-04-30T02:56:03.033Z,99185.06
2023-04-30T02:58:31.153Z,99186.63
2023-04-30T03:01:01.867Z,99190.56
2023-04-30T03:03:30.233Z,99194.06
2023-04-30T03:05:59.626Z,99197.53
2023-04-30T03:08:29.144Z,99202.25
2023-04-30T03:10:57.303Z,99198.78
2023-04-30T03:13:27.148Z,99200.28
2023-04-30T03:15:59.688Z,99202.19
2023-04-30T03:18:28.584Z,99199.13
2023-04-30T03:20:56.924Z,99205.25
2023-04-30T03:23:25.658Z,99206.00
2023-04-30T03:25:55.241Z,99201.91
2023-04-30T03:28:24.068Z,99205.72
2023-04-30T03:30:52.726Z,99207.75
2023-04-30T03:33:21.013Z,99211.63
2023-04-30T03:35:49.896Z,99221.94
2023-04-30T03:38:18.131Z,99215.97
2023-04-30T03:40:46.416Z,99226.50
2023-04-30T03:43:16.111Z,99223.44
2023-04-30T03:45:44.393Z,99224.84
2023-04-30T03:48:12.855Z,99232.66
2023-04-30T03:50:41.170Z,99233.00
2023-04-30T03:53:09.184Z,99236.16
2023-04-30T03:55:37.504Z,99243.56
2023-04-30T03:58:05.964Z,99238.81
2023-04-30T04:00:35.734Z,99235.31
2023-04-30T04:03:04.374Z,99240.41
2023-04-30T04:05:32.589Z,99241.94
2023-04-30T04:08:02.102Z,99246.59
2023-04-30T04:10:30.720Z,99247.81
2023-04-30T04:12:58.978Z,99244.91
2023-04-30T04:15:27.470Z,99250.72
2023-04-30T04:17:57.156Z,99256.06
2023-04-30T04:20:25.621Z,99254.44
2023-04-30T04:22:53.734Z,99260.31
2023-04-30T04:25:25.282Z,99259.75
2023-04-30T04:27:53.591Z,99251.25
2023-04-30T04:30:22.700Z,99257.78
2023-04-30T04:32:54.000Z,99260.38
2023-04-30T04:35:23.931Z,99257.75
2023-04-30T04:37:52.784Z,99261.66
2023-04-30T04:40:21.298Z,99255.47
2023-04-30T04:42:51.580Z,99252.16
2023-04-30T04:45:20.743Z,99254.56
2023-04-30T04:47:49.635Z,99258.59
2023-04-30T04:50:18.336Z,99256.69
2023-04-30T04:52:47.962Z,99258.28
2023-04-30T04:55:16.652Z,99256.00
2023-04-30T04:57:45.007Z,99258.53
2023-04-30T05:00:14.524Z,99264.47
2023-04-30T05:02:43.018Z,99268.94
2023-04-30T05:05:12.318Z,99263.50
2023-04-30T05:07:40.881Z,99273.38
2023-04-30T05:10:11.594Z,99275.03
2023-04-30T05:12:39.829Z,99274.69
2023-04-30T05:15:09.251Z,99276.25
2023-04-30T05:17:37.483Z,99273.50
2023-04-30T05:20:07.710Z,99274.31
2023-04-30T05:22:35.873Z,99277.16
2023-04-30T05:25:05.763Z,99274.56
2023-04-30T05:27:36.265Z,99277.31
2023-04-30T05:30:05.389Z,99270.31
2023-04-30T05:32:33.602Z,99279.28
2023-04-30T05:35:02.051Z,99281.25
2023-04-30T05:37:30.216Z,99279.69
2023-04-30T05:39:58.399Z,99277.34
2023-04-30T05:42:26.554Z,99277.31
2023-04-30T05:44:56.837Z,99276.97
2023-04-30T05:47:25.010Z,99283.63
2023-04-30T05:49:53.508Z,99282.47
2023-04-30T05:52:21.762Z,99279.34
2023-04-30T05:54:50.731Z,99279.31
2023-04-30T05:57:18.863Z,99271.91
2023-04-30T05:59:47.151Z,99272.69
2023-04-30T06:02:16.765Z,99275.81
2023-04-30T06:04:44.950Z,99275.44
2023-04-30T06:07:13.293Z,99282.84
2023-04-30T06:09:41.370Z,99282.84
2023-04-30T06:12:09.673Z,99282.06
2023-04-30T06:14:37.963Z,99284.44
2023-04-30T06:17:06.285Z,99286.78
2023-04-30T06:19:36.080Z,99290.69
2023-04-30T06:22:04.332Z,99288.72
2023-04-30T06:24:32.577Z,99291.47
2023-04-30T06:27:01.293Z,99284.41
2023-04-30T06:29:29.360Z,99284.81
2023-04-30T06:31:57.445Z,99287.91
2023-04-30T06:34:25.505Z,99285.19
2023-04-30T06:36:55.239Z,99282.06
2023-04-30T06:39:23.322Z,99291.44
2023-04-30T06:41:52.364Z,99284.78
2023-04-30T06:44:20.525Z,99285.16
2023-04-30T06:46:48.679Z,99279.69
2023-04-30T06:49:16.738Z,99279.31
2023-04-30T06:51:44.950Z,99282.81
2023-04-30T06:54:14.464Z,99286.31
2023-04-30T06:56:44.063Z,99274.13
2023-04-30T06:59:12.353Z,99269.84
2023-04-30T07:01:41.314Z,99275.66
2023-04-30T07:04:09.435Z,99274.88
2023-04-30T07:06:37.996Z,99275.66
2023-04-30T07:09:06.133Z,99263.84
2023-04-30T07:11:35.586Z,99268.88
2023-04-30T07:14:03.699Z,99275.09
2023-04-30T07:16:34.115Z,99268.81
2023-04-30T07:19:02.349Z,99266.88
2023-04-30T07:21:32.780Z,99262.88
2023-04-30T07:24:00.934Z,99254.25
2023-04-30T07:26:29.116Z,99265.19
2023-04-30T07:28:58.868Z,99258.88
2023-04-30T07:31:28.062Z,99263.47
2023-04-30T07:33:56.289Z,99264.91
2023-04-30T07:36:24.697Z,99257.75
2023-04-30T07:38:52.830Z,99259.72
2023-04-30T07:41:21.988Z,99253.81
2023-04-30T07:43:50.122Z,99258.41
2023-04-30T07:46:19.684Z,99265.00
2023-04-30T07:48:48.418Z,99257.13
2023-04-30T07:51:16.560Z,99265.22
2023-04-30T07:53:45.175Z,99266.06
2023-04-30T07:56:13.219Z,99261.34
2023-04-30T07:58:41.739Z,99258.16
2023-04-30T08:01:09.885Z,99255.75
2023-04-30T08:03:39.481Z,99261.56
2023-04-30T08:06:07.955Z,99263.00
2023-04-30T08:08:36.505Z,99255.09
2023-04-30T08:11:04.513Z,99257.16
2023-04-30T08:13:32.668Z,99244.47
2023-04-30T08:16:01.030Z,99245.03
2023-04-30T08:18:29.181Z,99254.69
2023-04-30T08:20:58.616Z,99246.69
2023-04-30T08:23:26.779Z,99252.59
2023-04-30T08:25:56.168Z,99245.16
2023-04-30T08:28:24.451Z,99243.31
2023-04-30T08:30:52.548Z,99243.47
2023-04-30T08:33:20.726Z,99245.16
2023-04-30T08:35:49.027Z,99241.88
2023-04-30T08:38:18.620Z,99236.38
2023-04-30T08:41:01.972Z,99238.66
2023-04-30T08:43:30.369Z,99233.00
2023-04-30T08:45:58.964Z,99238.25
2023-04-30T08:48:29.234Z,99226.03
2023-04-30T08:51:00.433Z,99238.50
2023-04-30T08:53:30.929Z,99236.66
2023-04-30T08:55:59.309Z,99228.53
2023-04-30T08:58:27.578Z,99235.03
2023-04-30T09:00:55.750Z,99211.19
2023-04-30T09:03:24.072Z,99226.00
2023-04-30T09:05:52.733Z,99218.88
2023-04-30T09:08:41.813Z,99216.41
2023-04-30T09:11:26.929Z,99206.53
2023-04-30T09:13:57.468Z,99215.56
2023-04-30T09:16:27.069Z,99209.91
2023-04-30T09:18:56.841Z,99204.69
2023-04-30T09:21:35.428Z,99208.28
2023-04-30T09:24:05.764Z,99203.66
2023-04-30T09:26:37.811Z,99203.63
2023-04-30T09:29:08.942Z,99204.63
2023-04-30T09:31:38.034Z,99202.56
2023-04-30T09:34:06.702Z,99191.09
2023-04-30T09:36:35.961Z,99190.97
2023-04-30T09:39:14.886Z,99190.09
2023-04-30T09:41:45.198Z,99186.19
2023-04-30T09:44:28.545Z,99180.63
2023-04-30T09:46:59.611Z,99179.63
2023-04-30T09:49:27.992Z,99175.69
2023-04-30T09:51:57.465Z,99176.22
2023-04-30T09:54:28.149Z,99178.19
2023-04-30T09:56:59.759Z,99165.19
2023-04-30T09:59:35.556Z,99164.03
2023-04-30T10:02:05.035Z,99162.28
2023-04-30T10:04:36.091Z,99173.22
2023-04-30T10:07:07.886Z,99166.72
2023-04-30T10:09:42.477Z,99172.31
2023-04-30T10:12:16.025Z,99169.69
2023-04-30T10:14:53.827Z,99162.81
2023-04-30T10:17:24.283Z,99160.19
2023-04-30T10:19:56.800Z,99159.19
2023-04-30T10:22:25.382Z,99158.97
2023-04-30T10:24:54.064Z,99152.41
2023-04-30T10:27:24.303Z,99150.63
2023-04-30T10:29:52.946Z,99160.25
2023-04-30T10:32:24.235Z,99156.28
2023-04-30T10:34:58.914Z,99148.03
2023-04-30T10:37:35.898Z,99147.47
2023-04-30T10:40:06.155Z,99143.38
2023-04-30T10:42:38.762Z,99144.16
2023-04-30T10:45:11.220Z,99140.25
2023-04-30T10:47:40.288Z,99148.25
2023-04-30T10:50:10.886Z,99150.13
2023-04-30T10:52:40.165Z,99142.63
2023-04-30T10:55:09.915Z,99140.06
2023-04-30T10:57:48.517Z,99132.19
2023-04-30T11:00:20.695Z,99145.69
2023-04-30T11:02:50.096Z,99142.59
2023-04-30T11:05:19.676Z,99140.38
2023-04-30T11:07:51.775Z,99135.19
2023-04-30T11:10:24.165Z,99131.31
2023-04-30T11:12:55.336Z,99130.72
2023-04-30T11:15:26.808Z,99128.31
2023-04-30T11:17:59.271Z,99126.13
2023-04-30T11:20:28.003Z,99120.94
2023-04-30T11:23:17.438Z,99126.06
2023-04-30T11:25:56.274Z,99123.81
2023-04-30T11:28:31.151Z,99117.56
2023-04-30T11:31:01.018Z,99115.06
2023-04-30T11:33:30.763Z,99112.41
2023-04-30T11:38:46.524Z,99105.69
2023-04-30T11:41:14.918Z,99099.06
2023-04-30T11:43:44.428Z,99101.47
2023-04-30T11:46:14.535Z,99092.22
2023-04-30T11:48:44.898Z,99100.28
2023-04-30T11:51:17.417Z,99095.25
2023-04-30T11:53:47.500Z,99089.53
2023-04-30T11:56:19.074Z,99091.19
2023-04-30T11:58:50.390Z,99089.78
2023-04-30T12:01:18.979Z,99088.13
2023-04-30T12:03:50.279Z,99090.00
2023-04-30T12:06:24.096Z,99084.72
2023-04-30T12:08:54.840Z,99073.34
2023-04-30T12:11:25.544Z,99069.34
2023-04-30T12:13:56.884Z,99066.34
2023-04-30T12:16:26.794Z,99069.22
2023-04-30T12:18:57.946Z,99059.72
2023-04-30T12:21:26.255Z,99061.06
2023-04-30T12:23:55.034Z,99064.22
2023-04-30T12:26:24.143Z,99063.00
2023-04-30T12:28:53.889Z,99067.09
2023-04-30T12:31:23.719Z,99066.34
2023-04-30T12:33:58.196Z,99072.50
2023-04-30T12:36:36.877Z,99097.00
2023-04-30T12:39:09.692Z,99124.34
2023-04-30T12:41:39.587Z,99100.91
2023-04-30T12:44:18.761Z,99105.84
2023-04-30T12:46:49.113Z,99110.75
2023-04-30T12:49:27.975Z,99095.94
2023-04-30T12:52:04.222Z,99102.22
2023-04-30T12:54:33.771Z,99117.84
2023-04-30T12:57:04.104Z,99097.50
2023-04-30T12:59:33.820Z,99079.91
2023-04-30T13:02:11.544Z,99065.50
2023-04-30T13:04:40.071Z,99058.91
2023-04-30T13:07:08.395Z,99053.47
2023-04-30T13:09:37.940Z,99059.75
2023-04-30T13:12:06.588Z,99067.50
2023-04-30T13:14:35.014Z,99055.81
2023-04-30T13:17:06.069Z,99058.94
2023-04-30T13:19:36.091Z,99059.72
2023-04-30T13:22:04.263Z,99086.63
2023-04-30T13:24:32.443Z,99080.78
2023-04-30T13:27:00.658Z,99095.22
2023-04-30T13:29:28.725Z,99097.13
2023-04-30T13:31:57.068Z,99121.28
2023-04-30T13:34:25.406Z,99084.63
2023-04-30T13:36:55.450Z,99113.69
2023-04-30T13:39:23.706Z,99141.25
2023-04-30T13:41:51.927Z,99171.56
2023-04-30T13:44:20.168Z,99161.00
2023-04-30T13:46:48.269Z,99152.47
2023-04-30T13:49:16.517Z,99160.66
2023-04-30T13:51:44.624Z,99148.63
2023-04-30T13:54:14.135Z,99166.19
2023-04-30T13:56:42.791Z,99153.06
2023-04-30T13:59:12.127Z,99152.34
2023-04-30T14:01:40.563Z,99164.09
2023-04-30T14:04:09.038Z,99140.00
2023-04-30T14:06:37.391Z,99148.94
2023-04-30T14:09:05.674Z,99137.66
2023-04-30T14:11:35.227Z,99142.72
2023-04-30T14:14:03.302Z,99141.59
2023-04-30T14:16:31.576Z,99154.09
2023-04-30T14:18:59.637Z,99148.25
2023-04-30T14:21:28.823Z,99153.31
2023-04-30T14:23:56.925Z,99143.56
2023-04-30T14:26:25.294Z,99147.84
2023-04-30T14:28:55.333Z,99142.75
2023-04-30T14:31:23.374Z,99141.59
2023-04-30T14:33:51.464Z,99133.75
2023-04-30T14:36:19.710Z,99139.19
2023-04-30T14:38:47.797Z,99129.75
2023-04-30T14:41:16.559Z,99126.63
2023-04-30T14:43:44.608Z,99130.81
2023-04-30T14:46:14.306Z,99129.22
2023-04-30T14:48:42.381Z,99121.56
2023-04-30T14:51:10.836Z,99116.47
2023-04-30T14:53:38.963Z,99123.81
2023-04-30T14:56:08.141Z,99119.97
2023-04-30T14:58:36.190Z,99115.59
2023-04-30T15:01:04.290Z,99121.78
2023-04-30T15:03:33.956Z,99123.34
2023-04-30T15:06:03.656Z,99108.13
2023-04-30T15:08:31.915Z,99121.34
2023-04-30T15:10:59.969Z,99107.47
2023-04-30T15:13:27.985Z,99122.13
2023-04-30T15:15:56.110Z,99106.97
2023-04-30T15:18:24.336Z,99108.97
2023-04-30T15:20:53.952Z,99118.31
2023-04-30T15:23:22.195Z,99124.09
2023-04-30T15:25:50.573Z,99118.88
2023-04-30T15:28:18.702Z,99114.19
2023-04-30T15:30:46.846Z,99112.38
2023-04-30T15:33:15.024Z,99124.72
2023-04-30T15:35:43.319Z,99119.50
2023-04-30T15:38:12.826Z,99126.56
2023-04-30T15:40:40.960Z,99124.50
2023-04-30T15:43:09.106Z,99127.28
2023-04-30T15:45:37.361Z,99123.06
2023-04-30T15:48:05.861Z,99122.72
2023-04-30T15:50:34.325Z,99121.69
2023-04-30T15:53:02.535Z,99117.50
2023-04-30T15:55:32.095Z,99119.34
2023-04-30T15:58:00.207Z,99122.84
2023-04-30T16:00:28.830Z,99124.47
2023-04-30T16:02:57.103Z,99119.44
2023-04-30T16:05:25.336Z,99110.69
2023-04-30T16:07:54.913Z,99116.56
2023-04-30T16:10:23.094Z,99120.31
2023-04-30T16:12:52.719Z,99121.09
2023-04-30T16:15:21.094Z,99123.00
2023-04-30T16:17:49.333Z,99122.34
2023-04-30T16:20:17.470Z,99126.22
2023-04-30T16:22:46.078Z,99127.47
2023-04-30T16:25:14.296Z,99124.38
2023-04-30T16:27:43.403Z,99126.06
2023-04-30T16:30:13.699Z,99135.09
2023-04-30T16:32:42.140Z,99123.06
2023-04-30T16:35:10.909Z,99131.31
2023-04-30T16:37:39.059Z,99134.81
2023-04-30T16:40:08.698Z,99124.34
2023-04-30T16:42:36.755Z,99129.31
2023-04-30T16:45:05.351Z,99133.66
2023-04-30T16:47:34.973Z,99131.75
2023-04-30T16:50:03.449Z,99141.13
2023-04-30T16:52:33.353Z,99150.56
2023-04-30T16:55:01.633Z,99171.63
2023-04-30T16:57:29.659Z,99179.66
2023-04-30T16:59:58.081Z,99186.31
2023-04-30T17:02:26.630Z,99175.78
2023-04-30T17:04:57.755Z,99178.56
2023-04-30T17:07:25.960Z,99183.78
2023-04-30T17:09:54.650Z,99187.38
2023-04-30T17:12:23.138Z,99184.91
2023-04-30T17:14:52.607Z,99181.88
2023-04-30T17:17:20.801Z,99188.16
2023-04-30T17:19:48.879Z,99194.38
2023-04-30T17:22:20.255Z,99201.91
2023-04-30T17:24:48.513Z,99214.78
2023-04-30T17:27:17.069Z,99214.81
2023-04-30T17:29:45.359Z,99210.59
2023-04-30T17:32:13.479Z,99212.94
2023-04-30T17:34:42.553Z,99217.28
2023-04-30T17:37:10.736Z,99216.47
2023-04-30T17:39:40.153Z,99218.84
2023-04-30T17:42:08.262Z,99229.75
2023-04-30T17:44:36.402Z,99231.34
2023-04-30T17:47:05.710Z,99232.09
2023-04-30T17:49:33.840Z,99241.06
2023-04-30T17:52:02.155Z,99248.84
2023-04-30T17:54:31.023Z,99251.56
2023-04-30T17:57:01.287Z,99256.22
2023-04-30T17:59:30.429Z,99258.59
2023-04-30T18:01:58.507Z,99265.16
2023-04-30T18:04:26.742Z,99261.66
2023-04-30T18:06:55.412Z,99265.88
2023-04-30T18:09:23.986Z,99266.25
2023-04-30T18:11:52.774Z,99268.53
2023-04-30T18:14:22.357Z,99272.38
2023-04-30T18:16:51.035Z,99277.47
2023-04-30T18:19:19.379Z,99268.06
2023-04-30T18:21:47.533Z,99276.63
2023-04-30T18:24:15.635Z,99267.69
2023-04-30T18:26:43.669Z,99277.00
2023-04-30T18:29:11.890Z,99276.16
2023-04-30T18:31:41.445Z,99284.69
2023-04-30T18:34:09.713Z,99294.81
2023-04-30T18:36:37.855Z,99293.63
2023-04-30T18:39:05.996Z,99295.16
2023-04-30T18:41:34.111Z,99302.50
2023-04-30T18:44:02.347Z,99298.66
2023-04-30T18:46:30.551Z,99302.22
2023-04-30T18:49:00.057Z,99301.47
2023-04-30T18:51:28.220Z,99303.75
2023-04-30T18:53:57.425Z,99298.63
2023-04-30T18:56:25.705Z,99294.69
2023-04-30T18:58:53.946Z,99289.59
2023-04-30T19:01:23.150Z,99286.06
2023-04-30T19:03:51.475Z,99288.00
2023-04-30T19:06:21.257Z,99292.63
2023-04-30T19:08:49.883Z,99295.31
2023-04-30T19:11:17.985Z,99295.31
2023-04-30T19:13:46.163Z,99297.63
2023-04-30T19:16:14.401Z,99301.09
2023-04-30T19:18:42.520Z,99301.44
2023-04-30T19:21:12.998Z,99306.97
2023-04-30T19:23:42.661Z,99308.53
2023-04-30T19:26:10.780Z,99314.75
2023-04-30T19:28:38.859Z,99312.00
2023-04-30T19:31:07.124Z,99308.47
2023-04-30T19:33:38.400Z,99310.78
2023-04-30T19:36:07.176Z,99313.03
2023-04-30T19:38:35.474Z,99311.41
2023-04-30T19:41:05.038Z,99306.66
2023-04-30T19:43:33.710Z,99309.38
2023-04-30T19:46:02.564Z,99311.34
2023-04-30T19:48:31.524Z,99323.44
2023-04-30T19:50:59.706Z,99321.56
2023-04-30T19:53:27.874Z,99323.91
2023-04-30T19:55:56.689Z,99320.16
2023-04-30T19:58:26.170Z,99327.13
2023-04-30T20:00:55.997Z,99341.94
2023-04-30T20:03:25.294Z,99335.63
2023-04-30T20:05:54.221Z,99335.38
2023-04-30T20:08:22.959Z,99344.16
2023-04-30T20:10:51.113Z,99338.34
2023-04-30T20:13:21.001Z,99341.75
2023-04-30T20:15:50.635Z,99349.00
2023-04-30T20:18:18.851Z,99354.78
2023-04-30T20:20:47.541Z,99347.66
2023-04-30T20:23:17.017Z,99353.00
2023-04-30T20:25:46.812Z,99357.97
2023-04-30T20:28:15.955Z,99354.41
2023-04-30T20:30:45.008Z,99360.63
2023-04-30T20:33:15.716Z,99375.72
2023-04-30T20:35:46.323Z,99388.28
2023-04-30T20:38:18.024Z,99382.84
2023-04-30T20:40:47.844Z,99373.81
2023-04-30T20:43:15.996Z,99371.13
2023-04-30T20:45:45.883Z,99378.03
2023-04-30T20:48:15.437Z,99375.94
2023-04-30T20:50:43.725Z,99375.59
2023-04-30T20:53:12.505Z,99377.53
2023-04-30T20:55:40.606Z,99376.03
2023-04-30T20:58:09.235Z,99383.28
2023-04-30T21:00:37.778Z,99381.66
2023-04-30T21:03:06.521Z,99394.78
2023-04-30T21:05:36.245Z,99399.44
2023-04-30T21:08:04.399Z,99404.88
2023-04-30T21:10:36.543Z,99395.50
2023-04-30T21:13:06.506Z,99408.69
2023-04-30T21:15:36.845Z,99417.25
2023-04-30T21:18:04.999Z,99407.13
2023-04-30T21:20:34.147Z,99410.13
2023-04-30T21:23:04.261Z,99414.31
2023-04-30T21:25:32.348Z,99412.69
2023-04-30T21:28:00.647Z,99409.56
2023-04-30T21:30:28.830Z,99415.31
2023-04-30T21:32:58.947Z,99415.19
2023-04-30T21:35:27.922Z,99410.88
2023-04-30T21:37:56.197Z,99413.50
2023-04-30T21:40:25.748Z,99408.38
2023-04-30T21:42:53.832Z,99404.47
2023-04-30T21:45:22.531Z,99410.25
2023-04-30T21:47:50.835Z,99403.97
2023-04-30T21:50:19.398Z,99413.25
2023-04-30T21:52:47.612Z,99426.34
2023-04-30T21:55:15.710Z,99430.94
2023-04-30T21:57:46.745Z,99436.66
2023-04-30T22:00:17.190Z,99432.31
2023-04-30T22:02:45.372Z,99427.25
2023-04-30T22:05:13.655Z,99427.16
2023-04-30T22:07:41.989Z,99428.25
2023-04-30T22:10:10.509Z,99431.69
2023-04-30T22:12:38.952Z,99441.34
2023-04-30T22:15:09.634Z,99432.81
2023-04-30T22:17:37.865Z,99437.91
2023-04-30T22:20:07.326Z,99449.19
2023-04-30T22:22:36.631Z,99448.31
2023-04-30T22:25:04.999Z,99430.53
2023-04-30T22:27:34.963Z,99437.13
2023-04-30T22:30:03.264Z,99438.13
2023-04-30T22:32:32.759Z,99438.03
2023-04-30T22:35:01.041Z,99441.47
2023-04-30T22:37:30.462Z,99446.06
2023-04-30T22:39:58.757Z,99441.34
2023-04-30T22:42:27.319Z,99432.03
2023-04-30T22:44:55.964Z,99435.03
2023-04-30T22:47:25.484Z,99435.41
2023-04-30T22:49:57.786Z,99437.34
2023-04-30T22:52:26.522Z,99441.56
2023-04-30T22:54:55.203Z,99448.47
2023-04-30T22:57:23.561Z,99459.41
2023-04-30T22:59:51.835Z,99467.81
2023-04-30T23:02:20.223Z,99470.69
2023-04-30T23:04:48.375Z,99464.84
2023-04-30T23:07:17.813Z,99484.16
2023-04-30T23:09:46.013Z,99484.75
2023-04-30T23:12:14.285Z,99482.47
2023-04-30T23:14:42.552Z,99485.47
2023-04-30T23:17:10.806Z,99488.25
2023-04-30T23:19:38.919Z,99479.41
2023-04-30T23:22:07.488Z,99483.34
2023-04-30T23:24:38.237Z,99479.97
2023-04-30T23:27:06.670Z,99475.63
2023-04-30T23:29:36.273Z,99490.59
2023-04-30T23:32:06.038Z,99484.16
2023-04-30T23:34:34.219Z,99496.03
2023-04-30T23:37:02.357Z,99480.56
2023-04-30T23:39:30.454Z,99465.88
2023-04-30T23:42:00.168Z,99467.25
2023-04-30T23:44:31.636Z,99454.53
2023-04-30T23:47:01.022Z,99451.59
2023-04-30T23:49:29.123Z,99455.19
2023-04-30T23:51:57.209Z,99453.13
2023-04-30T23:54:25.319Z,99454.47
2023-04-30T23:56:53.505Z,99448.97
2023-04-30T23:59:25.656Z,99450.81
